createdAt,value
2019-02-05T00:00:08.109Z,96.75
2019-02-05T00:01:08.142Z,96.75
2019-02-05T00:02:08.086Z,97.06
2019-02-05T00:03:08.075Z,96.75
2019-02-05T00:04:08.064Z,97.16
2019-02-05T00:05:08.052Z,96.75
2019-02-05T00:06:08.057Z,96.75
2019-02-05T00:07:08.060Z,96.75
2019-02-05T00:08:08.019Z,97.27
2019-02-05T00:09:08.008Z,96.95
2019-02-05T00:10:07.998Z,97.58
2019-02-05T00:11:07.988Z,97.16
2019-02-05T00:12:07.992Z,97.47
2019-02-05T00:13:07.992Z,97.06
2019-02-05T00:14:07.952Z,97.27
2019-02-05T00:15:07.946Z,96.64
2019-02-05T00:16:07.932Z,97.06
2019-02-05T00:17:07.924Z,96.79
2019-02-05T00:18:07.932Z,96.89
2019-02-05T00:19:07.914Z,97.47
2019-02-05T00:20:07.886Z,97.47
2019-02-05T00:21:07.874Z,97.27
2019-02-05T00:22:07.864Z,97.37
2019-02-05T00:23:07.851Z,97.37
2019-02-05T00:24:07.861Z,97.58
2019-02-05T00:25:07.860Z,97.47
2019-02-05T00:26:07.820Z,97.37
2019-02-05T00:27:07.807Z,97.47
2019-02-05T00:28:07.796Z,97.37
2019-02-05T00:29:07.785Z,97.47
2019-02-05T00:30:07.784Z,97.47
2019-02-05T00:31:07.809Z,97.58
2019-02-05T00:32:07.756Z,97.47
2019-02-05T00:33:07.741Z,97.58
2019-02-05T00:34:07.732Z,97.58
2019-02-05T00:35:07.733Z,97.37
2019-02-05T00:36:07.707Z,97.47
2019-02-05T00:37:07.728Z,97.37
2019-02-05T00:38:07.685Z,97.47
2019-02-05T00:39:07.673Z,97.37
2019-02-05T00:40:07.662Z,97.37
2019-02-05T00:41:07.664Z,97.58
2019-02-05T00:42:07.640Z,97.78
2019-02-05T00:43:07.663Z,97.27
2019-02-05T00:44:07.618Z,97.37
2019-02-05T00:45:07.608Z,97.27
2019-02-05T00:46:07.606Z,97.37
2019-02-05T00:47:07.584Z,97.37
2019-02-05T00:48:07.583Z,97.58
2019-02-05T00:49:07.578Z,97.68
2019-02-05T00:50:07.551Z,97.47
2019-02-05T00:51:07.540Z,97.47
2019-02-05T00:52:07.544Z,97.37
2019-02-05T00:53:07.518Z,97.53
2019-02-05T00:54:07.507Z,97.33
2019-02-05T00:55:07.515Z,97.22
2019-02-05T00:56:17.271Z,97.27
2019-02-05T00:57:08.487Z,97.06
2019-02-05T00:58:07.462Z,97.22
2019-02-05T00:59:07.450Z,97.27
2019-02-05T01:00:07.439Z,96.80
2019-02-05T01:01:07.446Z,97.37
2019-02-05T01:02:07.431Z,96.85
2019-02-05T01:03:07.435Z,97.06
2019-02-05T01:04:07.394Z,96.85
2019-02-05T01:05:07.384Z,96.64
2019-02-05T01:06:07.372Z,96.70
2019-02-05T01:07:07.386Z,96.59
2019-02-05T01:08:07.350Z,96.91
2019-02-05T01:09:07.352Z,96.75
2019-02-05T01:10:07.327Z,96.95
2019-02-05T01:11:07.338Z,96.85
2019-02-05T01:12:07.305Z,97.12
2019-02-05T01:13:07.329Z,97.01
2019-02-05T01:14:07.289Z,97.01
2019-02-05T01:15:07.272Z,96.70
2019-02-05T01:16:07.262Z,97.01
2019-02-05T01:17:07.274Z,96.95
2019-02-05T01:18:07.239Z,96.91
2019-02-05T01:19:07.254Z,97.01
2019-02-05T01:20:07.216Z,97.01
2019-02-05T01:21:07.205Z,97.01
2019-02-05T01:22:07.193Z,96.70
2019-02-05T01:23:07.202Z,96.80
2019-02-05T01:24:07.172Z,97.12
2019-02-05T01:25:07.190Z,97.16
2019-02-05T01:26:07.151Z,96.75
2019-02-05T01:27:07.142Z,96.80
2019-02-05T01:28:07.127Z,96.91
2019-02-05T01:29:07.127Z,97.12
2019-02-05T01:30:07.107Z,97.68
2019-02-05T01:31:07.127Z,96.70
2019-02-05T01:32:07.083Z,97.01
2019-02-05T01:33:07.071Z,97.43
2019-02-05T01:34:07.074Z,97.37
2019-02-05T01:35:07.049Z,96.59
2019-02-05T01:36:07.038Z,96.80
2019-02-05T01:37:07.057Z,96.70
2019-02-05T01:38:07.016Z,97.22
2019-02-05T01:39:07.004Z,97.12
2019-02-05T01:40:07.008Z,97.16
2019-02-05T01:41:06.982Z,97.27
2019-02-05T01:42:06.984Z,97.33
2019-02-05T01:43:06.994Z,97.33
2019-02-05T01:44:06.950Z,97.01
2019-02-05T01:45:06.937Z,97.64
2019-02-05T01:46:06.943Z,97.22
2019-02-05T01:47:06.915Z,97.33
2019-02-05T01:48:06.904Z,97.53
2019-02-05T01:49:06.912Z,97.22
2019-02-05T01:50:06.881Z,97.12
2019-02-05T01:51:06.872Z,97.01
2019-02-05T01:52:06.875Z,97.22
2019-02-05T01:53:06.851Z,97.22
2019-02-05T01:54:06.844Z,97.12
2019-02-05T01:55:06.853Z,96.91
2019-02-05T01:56:06.815Z,96.59
2019-02-05T01:57:06.806Z,97.33
2019-02-05T01:58:06.814Z,97.68
2019-02-05T01:59:06.782Z,97.53
2019-02-05T02:00:06.771Z,97.47
2019-02-05T02:01:06.782Z,97.33
2019-02-05T02:02:06.749Z,97.53
2019-02-05T02:03:06.737Z,97.22
2019-02-05T02:04:06.738Z,97.33
2019-02-05T02:05:06.715Z,97.01
2019-02-05T02:06:06.703Z,97.33
2019-02-05T02:07:06.725Z,97.43
2019-02-05T02:08:06.683Z,97.53
2019-02-05T02:09:06.689Z,97.43
2019-02-05T02:10:06.659Z,97.33
2019-02-05T02:11:06.648Z,97.43
2019-02-05T02:12:06.636Z,97.64
2019-02-05T02:13:06.647Z,97.74
2019-02-05T02:14:06.615Z,97.22
2019-02-05T02:15:06.622Z,97.43
2019-02-05T02:16:06.592Z,97.74
2019-02-05T02:17:06.581Z,97.95
2019-02-05T02:18:06.572Z,97.74
2019-02-05T02:19:06.581Z,97.85
2019-02-05T02:20:06.548Z,97.85
2019-02-05T02:21:06.549Z,97.53
2019-02-05T02:22:06.526Z,97.85
2019-02-05T02:23:06.515Z,97.85
2019-02-05T02:24:06.503Z,97.74
2019-02-05T02:25:06.509Z,98.05
2019-02-05T02:26:06.497Z,97.85
2019-02-05T02:27:06.470Z,98.05
2019-02-05T02:28:06.459Z,98.22
2019-02-05T02:29:06.448Z,97.85
2019-02-05T02:30:06.438Z,98.05
2019-02-05T02:31:06.455Z,98.26
2019-02-05T02:32:06.426Z,98.43
2019-02-05T02:33:06.403Z,98.47
2019-02-05T02:34:06.393Z,98.05
2019-02-05T02:35:06.395Z,98.78
2019-02-05T02:36:06.392Z,98.88
2019-02-05T02:37:06.400Z,98.78
2019-02-05T02:38:06.346Z,98.68
2019-02-05T02:39:06.349Z,98.68
2019-02-05T02:40:06.325Z,98.99
2019-02-05T02:41:06.314Z,98.68
2019-02-05T02:42:06.303Z,98.74
2019-02-05T02:43:06.328Z,98.68
2019-02-05T02:44:06.279Z,98.78
2019-02-05T02:45:06.291Z,98.78
2019-02-05T02:46:06.258Z,98.94
2019-02-05T02:47:06.247Z,98.74
2019-02-05T02:48:06.236Z,99.10
2019-02-05T02:49:06.259Z,99.10
2019-02-05T02:50:06.214Z,99.41
2019-02-05T02:51:06.219Z,99.30
2019-02-05T02:52:06.192Z,99.30
2019-02-05T02:53:06.185Z,99.30
2019-02-05T02:54:06.171Z,99.20
2019-02-05T02:55:06.189Z,98.99
2019-02-05T02:56:06.149Z,98.99
2019-02-05T02:57:06.156Z,99.05
2019-02-05T02:58:06.126Z,98.88
2019-02-05T02:59:06.113Z,98.99
2019-02-05T03:00:06.103Z,99.10
2019-02-05T03:01:06.112Z,98.68
2019-02-05T03:02:06.079Z,99.20
2019-02-05T03:03:06.088Z,99.15
2019-02-05T03:04:06.060Z,98.57
2019-02-05T03:05:06.048Z,99.20
2019-02-05T03:06:06.036Z,99.30
2019-02-05T03:07:06.069Z,98.68
2019-02-05T03:08:06.013Z,99.05
2019-02-05T03:09:06.024Z,98.99
2019-02-05T03:10:05.991Z,98.88
2019-02-05T03:11:05.979Z,99.20
2019-02-05T03:12:05.969Z,99.57
2019-02-05T03:13:05.978Z,99.51
2019-02-05T03:14:05.946Z,99.41
2019-02-05T03:15:05.950Z,99.46
2019-02-05T03:16:05.924Z,99.57
2019-02-05T03:17:05.914Z,99.30
2019-02-05T03:18:05.902Z,99.62
2019-02-05T03:19:05.915Z,99.62
2019-02-05T03:20:05.881Z,99.62
2019-02-05T03:21:05.975Z,98.88
2019-02-05T03:22:05.857Z,99.26
2019-02-05T03:23:05.846Z,99.26
2019-02-05T03:24:05.837Z,98.94
2019-02-05T03:25:05.852Z,99.30
2019-02-05T03:26:05.827Z,99.26
2019-02-05T03:27:16.902Z,99.10
2019-02-05T03:28:06.790Z,99.51
2019-02-05T03:29:05.780Z,99.51
2019-02-05T03:30:05.770Z,99.26
2019-02-05T03:31:05.782Z,99.51
2019-02-05T03:32:05.764Z,99.10
2019-02-05T03:33:05.736Z,99.20
2019-02-05T03:34:05.726Z,99.20
2019-02-05T03:35:05.715Z,99.20
2019-02-05T03:36:05.701Z,99.30
2019-02-05T03:37:05.734Z,99.30
2019-02-05T03:38:05.699Z,99.10
2019-02-05T03:39:05.670Z,99.82
2019-02-05T03:40:05.657Z,99.82
2019-02-05T03:41:05.701Z,99.99
2019-02-05T03:42:05.635Z,99.82
2019-02-05T03:43:05.660Z,99.93
2019-02-05T03:44:05.624Z,99.99
2019-02-05T03:45:05.610Z,99.72
2019-02-05T03:46:05.596Z,99.99
2019-02-05T03:47:05.579Z,99.99
2019-02-05T03:48:05.568Z,99.99
2019-02-05T03:49:05.601Z,99.72
2019-02-05T03:50:05.547Z,99.77
2019-02-05T03:51:05.537Z,99.72
2019-02-05T03:52:05.525Z,99.99
2019-02-05T03:53:05.515Z,99.72
2019-02-05T03:54:05.503Z,99.99
2019-02-05T03:55:05.549Z,99.99
2019-02-05T03:56:05.481Z,99.93
2019-02-05T03:57:05.473Z,99.99
2019-02-05T03:58:05.463Z,99.93
2019-02-05T03:59:05.447Z,99.99
2019-02-05T04:00:05.436Z,99.99
2019-02-05T04:01:05.464Z,99.99
2019-02-05T04:02:05.413Z,99.99
2019-02-05T04:03:05.401Z,99.99
2019-02-05T04:04:05.428Z,99.99
2019-02-05T04:05:05.381Z,99.99
2019-02-05T04:06:05.370Z,99.99
2019-02-05T04:07:05.397Z,99.99
2019-02-05T04:08:05.346Z,99.99
2019-02-05T04:09:05.358Z,99.99
2019-02-05T04:10:05.323Z,99.99
2019-02-05T04:11:05.313Z,99.99
2019-02-05T04:12:05.335Z,99.99
2019-02-05T04:13:05.307Z,99.99
2019-02-05T04:14:05.279Z,99.99
2019-02-05T04:15:05.272Z,99.99
2019-02-05T04:16:05.258Z,99.99
2019-02-05T04:17:05.246Z,99.99
2019-02-05T04:18:05.273Z,99.99
2019-02-05T04:19:05.234Z,99.99
2019-02-05T04:20:05.212Z,99.99
2019-02-05T04:21:05.201Z,99.99
2019-02-05T04:22:05.192Z,99.99
2019-02-05T04:23:05.178Z,99.99
2019-02-05T04:24:05.200Z,99.99
2019-02-05T04:25:05.159Z,99.99
2019-02-05T04:26:05.147Z,99.99
2019-02-05T04:27:05.136Z,99.99
2019-02-05T04:28:05.130Z,99.99
2019-02-05T04:29:05.125Z,99.99
2019-02-05T04:30:05.159Z,99.99
2019-02-05T04:31:05.095Z,99.99
2019-02-05T04:32:05.080Z,99.99
2019-02-05T04:33:05.068Z,99.99
2019-02-05T04:34:05.058Z,99.99
2019-02-05T04:35:05.047Z,99.99
2019-02-05T04:36:05.071Z,99.99
2019-02-05T04:37:05.026Z,99.99
2019-02-05T04:38:05.024Z,99.99
2019-02-05T04:39:05.002Z,99.99
2019-02-05T04:40:05.005Z,99.99
2019-02-05T04:41:04.985Z,99.99
2019-02-05T04:42:05.014Z,99.99
2019-02-05T04:43:04.958Z,99.99
2019-02-05T04:44:04.946Z,99.99
2019-02-05T04:45:04.943Z,99.99
2019-02-05T04:46:04.926Z,99.99
2019-02-05T04:47:04.929Z,99.99
2019-02-05T04:48:04.938Z,99.99
2019-02-05T04:49:04.891Z,99.99
2019-02-05T04:50:04.880Z,99.99
2019-02-05T04:51:04.879Z,99.99
2019-02-05T04:52:04.870Z,99.99
2019-02-05T04:53:04.849Z,99.99
2019-02-05T04:54:04.878Z,99.99
2019-02-05T04:55:04.826Z,99.99
2019-02-05T04:56:04.815Z,99.99
2019-02-05T04:57:04.816Z,99.99
2019-02-05T04:58:04.808Z,99.99
2019-02-05T04:59:04.784Z,99.99
2019-02-05T05:00:04.787Z,99.99
2019-02-05T05:01:04.759Z,99.99
2019-02-05T05:02:04.748Z,99.99
2019-02-05T05:03:04.737Z,99.99
2019-02-05T05:04:04.746Z,99.99
2019-02-05T05:05:04.713Z,99.99
2019-02-05T05:06:04.702Z,99.99
2019-02-05T05:07:04.691Z,99.99
2019-02-05T05:08:04.679Z,99.99
2019-02-05T05:09:04.671Z,99.99
2019-02-05T05:10:04.669Z,99.99
2019-02-05T05:11:04.655Z,99.99
2019-02-05T05:12:04.635Z,99.99
2019-02-05T05:13:04.629Z,99.99
2019-02-05T05:14:04.615Z,99.99
2019-02-05T05:15:04.618Z,99.99
2019-02-05T05:16:04.592Z,99.99
2019-02-05T05:17:04.586Z,99.99
2019-02-05T05:18:04.579Z,99.99
2019-02-05T05:19:04.567Z,99.99
2019-02-05T05:20:04.568Z,99.99
2019-02-05T05:21:04.557Z,99.99
2019-02-05T05:22:04.525Z,99.99
2019-02-05T05:23:04.519Z,99.99
2019-02-05T05:24:04.506Z,99.99
2019-02-05T05:25:04.495Z,99.99
2019-02-05T05:26:04.488Z,99.99
2019-02-05T05:27:04.501Z,99.99
2019-02-05T05:28:10.015Z,99.99
2019-02-05T05:29:05.455Z,99.99
2019-02-05T05:30:04.444Z,99.99
2019-02-05T05:31:04.439Z,99.99
2019-02-05T05:32:04.420Z,99.99
2019-02-05T05:33:04.420Z,99.99
2019-02-05T05:34:04.397Z,99.99
2019-02-05T05:35:04.387Z,99.99
2019-02-05T05:36:04.372Z,99.99
2019-02-05T05:37:04.366Z,99.99
2019-02-05T05:38:04.375Z,99.99
2019-02-05T05:39:04.342Z,99.99
2019-02-05T05:40:04.341Z,99.99
2019-02-05T05:41:04.320Z,99.99
2019-02-05T05:42:04.354Z,99.99
2019-02-05T05:43:04.337Z,99.99
2019-02-05T05:44:04.311Z,99.99
2019-02-05T05:45:04.275Z,99.99
2019-02-05T05:46:04.273Z,99.99
2019-02-05T05:47:04.266Z,99.99
2019-02-05T05:48:04.248Z,99.99
2019-02-05T05:49:04.252Z,99.99
2019-02-05T05:50:04.231Z,99.99
2019-02-05T05:51:04.213Z,99.99
2019-02-05T05:52:04.252Z,99.99
2019-02-05T05:53:04.188Z,99.99
2019-02-05T05:54:04.177Z,99.99
2019-02-05T05:55:04.183Z,99.99
2019-02-05T05:56:04.155Z,99.99
2019-02-05T05:57:04.140Z,99.99
2019-02-05T05:58:04.151Z,99.99
2019-02-05T05:59:04.119Z,99.99
2019-02-05T06:00:04.107Z,99.99
2019-02-05T06:01:04.142Z,99.99
2019-02-05T06:02:04.090Z,99.99
2019-02-05T06:03:04.074Z,99.99
2019-02-05T06:04:04.068Z,99.99
2019-02-05T06:05:04.054Z,99.99
2019-02-05T06:06:04.043Z,99.99
2019-02-05T06:07:04.050Z,99.99
2019-02-05T06:08:04.030Z,99.99
2019-02-05T06:09:04.022Z,99.99
2019-02-05T06:10:07.010Z,99.99
2019-02-05T06:11:03.995Z,99.99
2019-02-05T06:12:03.977Z,99.99
2019-02-05T06:13:04.013Z,99.99
2019-02-05T06:14:03.957Z,99.99
2019-02-05T06:15:03.943Z,99.99
2019-02-05T06:16:03.935Z,99.99
2019-02-05T06:17:03.937Z,99.99
2019-02-05T06:18:03.912Z,99.99
2019-02-05T06:19:03.908Z,99.99
2019-02-05T06:20:03.915Z,99.99
2019-02-05T06:21:03.887Z,99.99
2019-02-05T06:22:03.865Z,99.99
2019-02-05T06:23:03.856Z,99.99
2019-02-05T06:24:03.846Z,99.99
2019-02-05T06:25:03.849Z,99.99
2019-02-05T06:26:03.819Z,99.99
2019-02-05T06:27:03.832Z,99.99
2019-02-05T06:28:03.799Z,99.99
2019-02-05T06:29:03.785Z,99.99
2019-02-05T06:30:03.783Z,99.99
2019-02-05T06:31:03.781Z,99.99
2019-02-05T06:32:03.760Z,99.99
2019-02-05T06:33:03.750Z,99.99
2019-02-05T06:34:03.736Z,99.99
2019-02-05T06:35:03.720Z,99.99
2019-02-05T06:36:03.708Z,99.99
2019-02-05T06:37:03.720Z,99.99
2019-02-05T06:38:03.691Z,99.99
2019-02-05T06:39:03.678Z,99.99
2019-02-05T06:40:03.667Z,99.99
2019-02-05T06:41:03.672Z,99.99
2019-02-05T06:42:03.641Z,99.99
2019-02-05T06:43:03.639Z,99.99
2019-02-05T06:44:03.620Z,99.99
2019-02-05T06:45:03.620Z,99.99
2019-02-05T06:46:03.602Z,99.99
2019-02-05T06:47:03.595Z,99.99
2019-02-05T06:48:03.592Z,99.99
2019-02-05T06:49:03.565Z,99.99
2019-02-05T06:50:03.556Z,99.99
2019-02-05T06:51:03.544Z,99.99
2019-02-05T06:52:03.528Z,99.99
2019-02-05T06:53:03.532Z,99.99
2019-02-05T06:54:03.534Z,99.99
2019-02-05T06:55:03.501Z,99.99
2019-02-05T06:56:03.487Z,99.99
2019-02-05T06:57:03.478Z,99.99
2019-02-05T06:58:03.473Z,99.99
2019-02-05T06:59:03.455Z,99.99
2019-02-05T07:00:03.480Z,99.99
2019-02-05T07:01:03.437Z,99.99
2019-02-05T07:02:03.423Z,99.99
2019-02-05T07:03:03.411Z,99.99
2019-02-05T07:04:03.402Z,99.99
2019-02-05T07:05:03.406Z,99.99
2019-02-05T07:06:03.407Z,99.99
2019-02-05T07:07:03.382Z,99.99
2019-02-05T07:08:03.369Z,99.99
2019-02-05T07:09:03.363Z,99.99
2019-02-05T07:10:03.349Z,99.99
2019-02-05T07:11:03.341Z,99.99
2019-02-05T07:12:03.340Z,99.99
2019-02-05T07:13:03.322Z,99.99
2019-02-05T07:14:03.307Z,99.99
2019-02-05T07:15:03.323Z,99.99
2019-02-05T07:16:03.279Z,99.99
2019-02-05T07:17:03.268Z,99.99
2019-02-05T07:18:03.270Z,99.99
2019-02-05T07:19:03.252Z,99.99
2019-02-05T07:20:03.231Z,99.99
2019-02-05T07:21:03.256Z,99.99
2019-02-05T07:22:03.213Z,99.99
2019-02-05T07:23:03.201Z,99.99
2019-02-05T07:24:03.203Z,99.99
2019-02-05T07:25:03.180Z,99.99
2019-02-05T07:26:03.175Z,99.99
2019-02-05T07:27:03.174Z,99.99
2019-02-05T07:28:03.148Z,99.99
2019-02-05T07:29:03.148Z,99.99
2019-02-05T07:30:03.130Z,99.99
2019-02-05T07:31:03.133Z,99.99
2019-02-05T07:32:03.101Z,99.99
2019-02-05T07:33:03.103Z,99.99
2019-02-05T07:34:03.092Z,99.99
2019-02-05T07:35:03.088Z,99.99
2019-02-05T07:36:03.061Z,99.99
2019-02-05T07:37:03.102Z,99.99
2019-02-05T07:38:03.044Z,99.99
2019-02-05T07:39:03.022Z,99.99
2019-02-05T07:40:03.019Z,99.99
2019-02-05T07:41:03.027Z,99.99
2019-02-05T07:42:02.992Z,99.99
2019-02-05T07:43:02.990Z,99.99
2019-02-05T07:44:03.016Z,99.99
2019-02-05T07:45:02.959Z,99.99
2019-02-05T07:46:02.959Z,99.99
2019-02-05T07:47:02.935Z,99.99
2019-02-05T07:48:02.940Z,99.99
2019-02-05T07:49:02.958Z,99.99
2019-02-05T07:50:02.901Z,99.99
2019-02-05T07:51:02.891Z,99.99
2019-02-05T07:52:02.895Z,99.99
2019-02-05T07:53:02.871Z,99.99
2019-02-05T07:54:02.862Z,99.99
2019-02-05T07:55:02.848Z,99.99
2019-02-05T07:56:02.836Z,99.99
2019-02-05T07:57:02.846Z,99.99
2019-02-05T07:58:02.832Z,99.99
2019-02-05T07:59:09.839Z,99.99
2019-02-05T08:00:03.791Z,99.99
2019-02-05T08:01:02.803Z,99.99
2019-02-05T08:02:02.772Z,99.99
2019-02-05T08:03:02.760Z,99.99
2019-02-05T08:04:02.801Z,99.99
2019-02-05T08:05:02.738Z,99.99
2019-02-05T08:06:02.723Z,99.99
2019-02-05T08:07:02.715Z,99.99
2019-02-05T08:08:02.724Z,99.99
2019-02-05T08:09:02.702Z,99.99
2019-02-05T08:10:02.678Z,99.99
2019-02-05T08:11:02.664Z,99.99
2019-02-05T08:12:02.664Z,99.99
2019-02-05T08:13:02.673Z,99.99
2019-02-05T08:14:02.634Z,99.99
2019-02-05T08:15:02.639Z,99.99
2019-02-05T08:16:02.624Z,99.99
2019-02-05T08:17:02.600Z,99.99
2019-02-05T08:18:02.590Z,99.99
2019-02-05T08:19:02.579Z,99.99
2019-02-05T08:20:02.577Z,99.99
2019-02-05T08:21:02.572Z,99.99
2019-02-05T08:22:02.545Z,99.99
2019-02-05T08:23:02.542Z,99.99
2019-02-05T08:24:02.523Z,99.99
2019-02-05T08:25:02.519Z,99.99
2019-02-05T08:26:02.513Z,99.99
2019-02-05T08:27:02.500Z,99.99
2019-02-05T08:28:02.480Z,99.99
2019-02-05T08:29:02.470Z,99.99
2019-02-05T08:30:02.457Z,99.99
2019-02-05T08:31:02.445Z,99.99
2019-02-05T08:32:02.461Z,99.99
2019-02-05T08:33:02.424Z,99.99
2019-02-05T08:34:03.351Z,99.99
2019-02-05T08:35:02.408Z,99.99
2019-02-05T08:36:02.394Z,99.99
2019-02-05T08:37:02.382Z,99.99
2019-02-05T08:38:02.400Z,99.99
2019-02-05T08:39:02.358Z,99.99
2019-02-05T08:40:02.349Z,99.99
2019-02-05T08:41:02.336Z,99.99
2019-02-05T08:42:02.513Z,99.99
2019-02-05T08:43:02.472Z,99.99
2019-02-05T08:44:02.499Z,99.99
2019-02-05T08:45:02.358Z,99.99
2019-02-05T08:46:02.481Z,99.99
2019-02-05T08:47:02.277Z,99.99
2019-02-05T08:48:02.279Z,99.99
2019-02-05T08:49:02.279Z,99.99
2019-02-05T08:50:02.264Z,99.99
2019-02-05T08:51:02.254Z,99.99
2019-02-05T08:52:02.211Z,99.99
2019-02-05T08:53:02.200Z,99.99
2019-02-05T08:54:02.190Z,99.99
2019-02-05T08:55:02.228Z,99.99
2019-02-05T08:56:02.192Z,99.99
2019-02-05T08:57:02.164Z,99.99
2019-02-05T08:58:02.163Z,99.99
2019-02-05T08:59:02.144Z,99.99
2019-02-05T09:00:02.149Z,99.99
2019-02-05T09:01:02.135Z,99.99
2019-02-05T09:02:02.127Z,99.95
2019-02-05T09:03:02.102Z,99.99
2019-02-05T09:04:02.097Z,99.95
2019-02-05T09:05:02.088Z,99.85
2019-02-05T09:06:02.086Z,99.95
2019-02-05T09:07:02.079Z,99.74
2019-02-05T09:08:02.055Z,99.85
2019-02-05T09:09:02.053Z,99.64
2019-02-05T09:10:02.033Z,99.85
2019-02-05T09:11:02.034Z,99.99
2019-02-05T09:12:01.988Z,99.95
2019-02-05T09:13:01.979Z,99.95
2019-02-05T09:14:10.489Z,99.99
2019-02-05T09:15:02.968Z,99.54
2019-02-05T09:16:01.963Z,99.43
2019-02-05T09:17:01.932Z,99.33
2019-02-05T09:18:01.924Z,99.12
2019-02-05T09:19:01.934Z,99.02
2019-02-05T09:20:01.936Z,99.02
2019-02-05T09:21:01.898Z,99.33
2019-02-05T09:22:01.917Z,99.12
2019-02-05T09:23:01.877Z,99.12
2019-02-05T09:24:01.865Z,99.33
2019-02-05T09:25:01.868Z,99.18
2019-02-05T09:26:01.861Z,98.91
2019-02-05T09:27:01.835Z,98.91
2019-02-05T09:28:01.841Z,98.91
2019-02-05T09:29:01.799Z,99.12
2019-02-05T09:30:01.841Z,99.38
2019-02-05T09:31:01.808Z,99.28
2019-02-05T09:32:01.796Z,98.97
2019-02-05T09:33:01.792Z,99.07
2019-02-05T09:34:01.743Z,98.50
2019-02-05T09:35:01.744Z,98.66
2019-02-05T09:36:01.721Z,99.07
2019-02-05T09:37:01.727Z,99.07
2019-02-05T09:38:01.722Z,98.66
2019-02-05T09:39:01.718Z,98.35
2019-02-05T09:40:01.677Z,98.55
2019-02-05T09:41:01.673Z,98.50
2019-02-05T09:42:01.654Z,98.55
2019-02-05T09:43:01.643Z,98.45
2019-02-05T09:44:01.652Z,98.55
2019-02-05T09:45:01.647Z,98.55
2019-02-05T09:46:01.609Z,98.86
2019-02-05T09:47:01.623Z,98.76
2019-02-05T09:48:01.592Z,98.45
2019-02-05T09:49:01.591Z,98.45
2019-02-05T09:50:01.598Z,98.76
2019-02-05T09:51:01.572Z,98.45
2019-02-05T09:52:01.546Z,98.86
2019-02-05T09:53:01.534Z,98.66
2019-02-05T09:54:01.521Z,98.86
2019-02-05T09:55:01.522Z,98.55
2019-02-05T09:56:01.551Z,98.55
2019-02-05T09:57:01.515Z,98.55
2019-02-05T09:58:01.479Z,98.55
2019-02-05T09:59:01.478Z,98.93
2019-02-05T10:00:01.460Z,98.61
2019-02-05T10:01:01.490Z,98.55
2019-02-05T10:02:01.460Z,98.41
2019-02-05T10:03:01.440Z,98.72
2019-02-05T10:04:01.414Z,98.66
2019-02-05T10:05:01.429Z,98.82
2019-02-05T10:06:01.389Z,98.76
2019-02-05T10:07:01.414Z,97.58
2019-02-05T10:08:01.379Z,98.72
2019-02-05T10:09:01.385Z,98.76
2019-02-05T10:10:01.343Z,98.76
2019-02-05T10:11:01.348Z,98.51
2019-02-05T10:12:01.347Z,98.93
2019-02-05T10:13:01.311Z,98.55
2019-02-05T10:14:01.325Z,98.55
2019-02-05T10:15:01.313Z,97.72
2019-02-05T10:16:01.324Z,97.99
2019-02-05T10:17:01.280Z,97.78
2019-02-05T10:18:01.273Z,98.14
2019-02-05T10:19:01.244Z,97.78
2019-02-05T10:20:01.250Z,98.61
2019-02-05T10:21:01.264Z,98.61
2019-02-05T10:22:01.215Z,98.72
2019-02-05T10:23:01.213Z,98.61
2019-02-05T10:24:01.225Z,97.78
2019-02-05T10:25:01.188Z,97.68
2019-02-05T10:26:01.182Z,97.78
2019-02-05T10:27:01.187Z,97.72
2019-02-05T10:28:01.145Z,98.30
2019-02-05T10:29:01.175Z,97.78
2019-02-05T10:30:01.137Z,97.78
2019-02-05T10:31:01.120Z,97.78
2019-02-05T10:32:01.122Z,97.78
2019-02-05T10:33:01.119Z,97.68
2019-02-05T10:34:01.085Z,97.99
2019-02-05T10:35:01.099Z,97.58
2019-02-05T10:36:01.494Z,97.78
2019-02-05T10:37:01.069Z,97.99
2019-02-05T10:38:01.060Z,97.78
2019-02-05T10:39:01.050Z,98.20
2019-02-05T10:40:01.024Z,97.78
2019-02-05T10:41:01.006Z,97.78
2019-02-05T10:42:00.995Z,97.27
2019-02-05T10:43:01.019Z,97.47
2019-02-05T10:44:00.967Z,97.37
2019-02-05T10:45:00.983Z,97.47
2019-02-05T10:46:00.964Z,97.47
2019-02-05T10:47:00.948Z,97.43
2019-02-05T10:48:00.925Z,97.43
2019-02-05T10:49:03.303Z,97.47
2019-02-05T10:50:00.902Z,97.33
2019-02-05T10:51:00.946Z,97.33
2019-02-05T10:52:00.921Z,97.16
2019-02-05T10:53:00.871Z,97.33
2019-02-05T10:54:00.878Z,97.33
2019-02-05T10:55:00.894Z,97.27
2019-02-05T10:56:00.862Z,97.37
2019-02-05T10:57:00.854Z,97.43
2019-02-05T10:58:00.826Z,97.16
2019-02-05T10:59:00.803Z,97.02
2019-02-05T11:00:08.361Z,97.12
2019-02-05T11:01:01.813Z,96.75
2019-02-05T11:02:00.779Z,97.06
2019-02-05T11:03:00.798Z,97.43
2019-02-05T11:04:00.746Z,97.12
2019-02-05T11:05:00.748Z,96.85
2019-02-05T11:06:00.751Z,97.02
2019-02-05T11:07:00.749Z,96.44
2019-02-05T11:08:00.749Z,96.70
2019-02-05T11:09:00.698Z,96.70
2019-02-05T11:10:00.695Z,96.60
2019-02-05T11:11:00.701Z,96.50
2019-02-05T11:12:00.687Z,97.02
2019-02-05T11:13:00.654Z,96.60
2019-02-05T11:14:00.634Z,96.39
2019-02-05T11:15:00.657Z,96.91
2019-02-05T11:16:00.691Z,96.60
2019-02-05T11:17:00.602Z,96.70
2019-02-05T11:18:00.623Z,95.25
2019-02-05T11:19:00.602Z,96.29
2019-02-05T11:20:00.597Z,96.39
2019-02-05T11:21:00.569Z,96.29
2019-02-05T11:22:00.578Z,96.29
2019-02-05T11:23:00.551Z,96.19
2019-02-05T11:24:00.552Z,96.45
2019-02-05T11:25:00.526Z,95.62
2019-02-05T11:26:00.532Z,96.39
2019-02-05T11:27:00.493Z,95.87
2019-02-05T11:28:00.513Z,95.41
2019-02-05T11:29:00.523Z,95.67
2019-02-05T11:30:00.461Z,95.46
2019-02-05T11:31:00.462Z,96.19
2019-02-05T11:32:00.479Z,96.50
2019-02-05T11:33:00.439Z,95.87
2019-02-05T11:34:00.458Z,95.98
2019-02-05T11:35:00.403Z,95.77
2019-02-05T11:36:00.394Z,95.72
2019-02-05T11:37:00.441Z,95.83
2019-02-05T11:38:00.382Z,95.62
2019-02-05T11:39:00.390Z,95.20
2019-02-05T11:40:00.378Z,95.31
2019-02-05T11:41:00.337Z,95.20
2019-02-05T11:42:00.353Z,95.51
2019-02-05T11:43:00.330Z,95.25
2019-02-05T11:44:00.325Z,95.62
2019-02-05T11:45:00.308Z,96.03
2019-02-05T11:46:00.313Z,95.83
2019-02-05T11:47:00.289Z,95.62
2019-02-05T11:48:00.302Z,95.51
2019-02-05T11:49:00.253Z,95.51
2019-02-05T11:50:00.340Z,95.83
2019-02-05T11:51:00.231Z,95.62
2019-02-05T11:52:00.251Z,95.31
2019-02-05T11:53:00.214Z,95.41
2019-02-05T11:54:00.216Z,95.83
2019-02-05T11:55:00.362Z,95.72
2019-02-05T11:56:00.177Z,95.31
2019-02-05T11:57:00.160Z,95.10
2019-02-05T11:58:00.183Z,95.00
2019-02-05T11:59:00.165Z,95.10
2019-02-05T12:00:00.226Z,94.17
2019-02-05T12:01:00.127Z,94.48
2019-02-05T12:02:00.163Z,95.10
2019-02-05T12:03:00.094Z,94.23
2019-02-05T12:04:00.107Z,94.23
2019-02-05T12:05:00.334Z,93.60
2019-02-05T12:06:00.085Z,93.65
2019-02-05T12:07:00.064Z,93.85
2019-02-05T12:08:00.053Z,94.23
2019-02-05T12:09:00.041Z,93.91
2019-02-05T12:10:00.055Z,93.50
2019-02-05T12:11:00.066Z,93.91
2019-02-05T12:12:00.015Z,93.60
2019-02-05T12:12:59.994Z,93.71
2019-02-05T12:13:59.970Z,93.81
2019-02-05T12:14:59.974Z,93.19
2019-02-05T12:15:59.986Z,92.98
2019-02-05T12:17:00.005Z,93.44
2019-02-05T12:17:59.927Z,93.19
2019-02-05T12:18:59.930Z,92.98
2019-02-05T12:19:59.917Z,92.98
2019-02-05T12:20:59.910Z,93.81
2019-02-05T12:21:59.935Z,93.40
2019-02-05T12:22:59.892Z,93.08
2019-02-05T12:23:59.895Z,93.44
2019-02-05T12:24:59.867Z,93.40
2019-02-05T12:25:59.841Z,93.19
2019-02-05T12:26:59.827Z,93.40
2019-02-05T12:27:59.869Z,93.40
2019-02-05T12:28:59.828Z,93.50
2019-02-05T12:29:59.809Z,93.29
2019-02-05T12:30:59.794Z,93.19
2019-02-05T12:31:59.811Z,93.40
2019-02-05T12:33:01.886Z,92.47
2019-02-05T12:33:59.779Z,92.98
2019-02-05T12:34:59.757Z,92.36
2019-02-05T12:35:59.760Z,91.74
2019-02-05T12:36:59.722Z,92.26
2019-02-05T12:37:59.742Z,92.16
2019-02-05T12:38:59.742Z,91.74
2019-02-05T12:39:59.697Z,92.16
2019-02-05T12:40:59.680Z,92.16
2019-02-05T12:41:59.667Z,92.47
2019-02-05T12:42:59.656Z,92.26
2019-02-05T12:43:59.901Z,92.98
2019-02-05T12:44:59.644Z,92.78
2019-02-05T12:45:59.686Z,92.57
2019-02-05T12:46:59.611Z,92.16
2019-02-05T12:47:59.628Z,92.36
2019-02-05T12:48:59.596Z,91.53
2019-02-05T12:49:59.600Z,92.05
2019-02-05T12:50:59.585Z,91.85
2019-02-05T12:51:59.581Z,91.53